createdAt,value
2019-04-21T00:02:03.274Z,6.25
2019-04-21T00:04:42.660Z,6.25
2019-04-21T00:07:22.157Z,6.92
2019-04-21T00:09:53.426Z,6.03
2019-04-21T00:12:17.896Z,6.50
2019-04-21T00:14:43.822Z,7.08
2019-04-21T00:17:07.915Z,6.10
2019-04-21T00:19:37.103Z,5.97
2019-04-21T00:22:14.916Z,6.10
2019-04-21T00:24:48.783Z,5.87
2019-04-21T00:27:22.469Z,6.45
2019-04-21T00:29:52.086Z,6.65
2019-04-21T00:32:19.209Z,6.83
2019-04-21T00:34:34.424Z,7.62
2019-04-21T00:37:12.121Z,6.60
2019-04-21T00:42:21.561Z,7.00
2019-04-21T00:44:44.241Z,7.72
2019-04-21T00:47:25.493Z,8.00
2019-04-21T00:49:54.244Z,7.47
2019-04-21T00:52:48.839Z,7.85
2019-04-21T00:55:17.710Z,7.20
2019-04-21T00:57:49.802Z,7.12
2019-04-21T01:00:10.621Z,7.40
2019-04-21T01:02:45.560Z,7.67
2019-04-21T01:05:15.506Z,6.97
2019-04-21T01:07:38.529Z,6.65
2019-04-21T01:09:58.982Z,8.20
2019-04-21T01:12:37.461Z,7.00
2019-04-21T01:15:09.194Z,6.97
2019-04-21T01:17:38.895Z,7.10
2019-04-21T01:19:57.241Z,6.92
2019-04-21T01:22:12.954Z,7.08
2019-04-21T01:24:45.291Z,7.58
2019-04-21T01:27:21.094Z,7.78
2019-04-21T01:30:01.220Z,6.80
2019-04-21T01:32:29.723Z,6.80
2019-04-21T01:34:58.303Z,7.20
2019-04-21T01:37:35.229Z,6.80
2019-04-21T01:40:04.723Z,6.70
2019-04-21T01:42:28.183Z,6.70
2019-04-21T01:44:59.478Z,6.58
2019-04-21T01:47:26.265Z,7.53
2019-04-21T01:49:52.770Z,7.17
2019-04-21T01:52:38.354Z,7.35
2019-04-21T01:55:12.684Z,7.28
2019-04-21T01:58:11.752Z,6.80
2019-04-21T02:00:51.777Z,6.80
2019-04-21T02:06:04.477Z,6.85
2019-04-21T02:08:27.500Z,7.12
2019-04-21T02:11:00.274Z,7.20
2019-04-21T02:13:23.511Z,7.55
2019-04-21T02:16:00.874Z,6.80
2019-04-21T02:18:29.197Z,7.10
2019-04-21T02:20:44.535Z,8.08
2019-04-21T02:23:46.399Z,7.92
2019-04-21T02:25:57.764Z,6.62
2019-04-21T02:28:36.885Z,7.15
2019-04-21T02:31:18.133Z,7.35
2019-04-21T02:33:36.117Z,7.03
2019-04-21T02:36:22.794Z,8.50
2019-04-21T02:38:39.330Z,7.72
2019-04-21T02:41:01.478Z,7.58
2019-04-21T02:46:10.293Z,8.03
2019-04-21T02:48:38.841Z,8.20
2019-04-21T02:50:57.487Z,8.38
2019-04-21T02:56:01.069Z,8.05
2019-04-21T03:01:44.278Z,8.30
2019-04-21T03:04:31.998Z,8.38
2019-04-21T03:10:04.405Z,8.55
2019-04-21T03:14:55.826Z,7.35
2019-04-21T03:17:22.381Z,7.10
2019-04-21T03:20:02.911Z,7.40
2019-04-21T03:25:21.378Z,8.48
2019-04-21T03:29:54.352Z,8.48
2019-04-21T03:32:48.018Z,7.70
2019-04-21T03:37:24.633Z,7.33
2019-04-21T03:39:44.906Z,7.97
2019-04-21T03:42:26.408Z,7.50
2019-04-21T03:45:03.674Z,8.48
2019-04-21T03:47:17.096Z,9.13
2019-04-21T03:49:50.048Z,7.90
2019-04-21T04:09:13.678Z,8.48
2019-04-21T04:11:29.992Z,8.25
2019-04-21T04:13:57.994Z,7.85
2019-04-21T04:16:20.118Z,7.80
2019-04-21T04:18:52.336Z,8.05
2019-04-21T04:21:30.776Z,8.35
2019-04-21T04:26:24.458Z,8.68
2019-04-21T04:31:30.506Z,9.55
2019-04-21T04:33:58.128Z,9.03
2019-04-21T04:36:46.552Z,8.25
2019-04-21T04:39:29.816Z,8.00
2019-04-21T04:42:12.362Z,9.00
2019-04-21T04:47:05.597Z,9.83
2019-04-21T04:52:19.283Z,9.95
2019-04-21T04:54:41.732Z,9.33
2019-04-21T04:57:08.374Z,8.73
2019-04-21T05:02:20.563Z,9.15
2019-04-21T05:04:39.684Z,9.65
2019-04-21T05:07:00.170Z,9.45
2019-04-21T05:09:25.310Z,10.50
2019-04-21T05:14:26.544Z,9.70
2019-04-21T05:16:57.677Z,8.70
2019-04-21T05:19:20.975Z,9.50
2019-04-21T05:21:48.024Z,9.20
2019-04-21T05:24:13.851Z,10.15
2019-04-21T05:26:43.424Z,10.03
2019-04-21T05:29:08.988Z,9.20
2019-04-21T05:34:45.142Z,9.15
2019-04-21T05:37:36.714Z,9.85
2019-04-21T05:40:10.229Z,9.55
2019-04-21T05:42:40.026Z,10.05
2019-04-21T05:45:19.346Z,10.45
2019-04-21T05:50:47.927Z,10.58
2019-04-21T05:53:24.290Z,11.93
2019-04-21T05:55:49.284Z,13.40
2019-04-21T05:58:13.980Z,11.43
2019-04-21T06:06:08.541Z,10.58
2019-04-21T06:08:39.001Z,12.40
2019-04-21T06:11:00.225Z,11.93
2019-04-21T06:13:38.150Z,11.93
2019-04-21T06:15:56.165Z,11.95
2019-04-21T06:18:37.963Z,11.25
2019-04-21T06:21:00.160Z,13.03
2019-04-21T06:23:30.216Z,13.10
2019-04-21T06:26:12.207Z,14.60
2019-04-21T06:28:38.025Z,15.90
2019-04-21T06:31:05.906Z,14.20
2019-04-21T06:33:27.558Z,14.10
2019-04-21T06:39:15.386Z,10.30
2019-04-21T06:41:43.234Z,8.95
2019-04-21T06:44:11.912Z,9.23
2019-04-21T06:46:43.844Z,9.33
2019-04-21T06:49:08.119Z,10.43
2019-04-21T06:51:35.775Z,8.48
2019-04-21T06:54:16.172Z,9.63
2019-04-21T06:56:45.065Z,9.05
2019-04-21T06:59:25.021Z,8.18
2019-04-21T07:01:43.817Z,7.45
2019-04-21T07:04:20.917Z,7.50
2019-04-21T07:06:43.857Z,6.03
2019-04-21T07:09:17.325Z,6.33
2019-04-21T07:11:41.255Z,6.35
2019-04-21T07:16:42.902Z,7.17
2019-04-21T07:19:14.601Z,5.97
2019-04-21T07:21:38.481Z,5.70
2019-04-21T07:24:08.255Z,6.10
2019-04-21T07:26:36.856Z,5.95
2019-04-21T07:29:08.068Z,5.92
2019-04-21T07:31:45.040Z,6.60
2019-04-21T07:34:11.069Z,4.80
2019-04-21T07:39:00.237Z,6.42
2019-04-21T07:41:24.294Z,5.28
2019-04-21T07:43:57.231Z,5.83
2019-04-21T07:46:27.338Z,6.25
2019-04-21T07:49:25.248Z,5.40
2019-04-21T07:52:03.134Z,4.92
2019-04-21T07:54:37.452Z,5.55
2019-04-21T07:56:47.690Z,5.65
2019-04-21T07:59:41.208Z,5.78
2019-04-21T08:02:01.166Z,5.97
2019-04-21T08:04:52.769Z,5.17
2019-04-21T08:06:55.677Z,4.97
2019-04-21T08:09:28.854Z,5.10
2019-04-21T08:11:51.768Z,4.97
2019-04-21T08:14:31.762Z,5.47
2019-04-21T08:16:57.323Z,5.05
2019-04-21T08:19:26.224Z,5.65
2019-04-21T08:22:05.216Z,5.12
2019-04-21T08:24:30.587Z,5.28
2019-04-21T08:26:58.681Z,4.85
2019-04-21T08:32:05.486Z,5.60
2019-04-21T08:34:28.461Z,5.58
2019-04-21T08:36:51.310Z,5.25
2019-04-21T08:39:35.651Z,5.05
2019-04-21T08:41:55.982Z,5.05
2019-04-21T08:44:33.838Z,5.42
2019-04-21T08:46:58.829Z,5.50
2019-04-21T08:49:29.355Z,5.15
2019-04-21T08:52:06.770Z,5.00
2019-04-21T08:54:26.414Z,4.62
2019-04-21T08:57:24.177Z,4.87
2019-04-21T09:00:13.801Z,4.87
2019-04-21T09:03:02.563Z,5.05
2019-04-21T09:05:29.830Z,4.95
2019-04-21T09:08:04.032Z,4.67
2019-04-21T09:10:34.825Z,4.72
2019-04-21T09:12:58.759Z,4.53
2019-04-21T09:15:32.445Z,4.95
2019-04-21T09:17:53.442Z,4.70
2019-04-21T09:20:33.812Z,4.95
2019-04-21T09:23:00.988Z,4.80
2019-04-21T09:25:37.319Z,4.55
2019-04-21T09:28:02.292Z,4.33
2019-04-21T09:30:13.040Z,3.80
2019-04-21T09:32:42.458Z,4.60
2019-04-21T09:35:13.153Z,4.12
2019-04-21T09:37:49.430Z,5.12
2019-04-21T09:40:12.280Z,4.47
2019-04-21T09:42:47.573Z,4.37
2019-04-21T09:45:11.997Z,4.55
2019-04-21T09:47:47.004Z,4.15
2019-04-21T09:50:10.247Z,4.37
2019-04-21T09:52:45.171Z,4.50
2019-04-21T09:55:15.958Z,4.40
2019-04-21T09:57:46.526Z,4.20
2019-04-21T10:00:18.233Z,4.47
2019-04-21T10:02:51.606Z,4.35
2019-04-21T10:05:10.571Z,4.00
2019-04-21T10:07:41.730Z,4.23
2019-04-21T10:10:08.524Z,4.00
2019-04-21T10:12:37.401Z,3.60
2019-04-21T10:15:06.311Z,4.27
2019-04-21T10:17:37.886Z,4.07
2019-04-21T10:20:09.829Z,4.13
2019-04-21T10:22:39.339Z,4.20
2019-04-21T10:25:10.304Z,3.80
2019-04-21T10:27:39.164Z,4.10
2019-04-21T10:30:07.968Z,3.50
2019-04-21T10:32:38.494Z,3.40
2019-04-21T10:35:07.438Z,4.10
2019-04-21T10:37:47.321Z,3.30
2019-04-21T10:40:07.548Z,3.83
2019-04-21T10:42:37.371Z,3.77
2019-04-21T10:45:07.324Z,3.70
2019-04-21T10:47:36.848Z,3.20
2019-04-21T10:50:06.636Z,3.33
2019-04-21T10:52:53.295Z,3.77
2019-04-21T10:55:40.276Z,4.00
2019-04-21T10:58:26.663Z,5.77
2019-04-21T11:01:16.783Z,3.87
2019-04-21T11:04:07.523Z,3.63
2019-04-21T11:06:37.124Z,3.60
2019-04-21T11:09:08.853Z,3.73
2019-04-21T11:11:37.706Z,3.23
2019-04-21T11:14:06.557Z,3.50
2019-04-21T11:16:35.183Z,3.40
2019-04-21T11:19:04.041Z,3.83
2019-04-21T11:21:32.809Z,3.30
2019-04-21T11:24:01.865Z,3.23
2019-04-21T11:26:31.683Z,2.90
2019-04-21T11:29:01.086Z,3.57
2019-04-21T11:31:29.287Z,3.10
2019-04-21T11:33:57.556Z,3.27
2019-04-21T11:36:26.990Z,3.47
2019-04-21T11:39:19.953Z,3.47
2019-04-21T11:41:39.402Z,3.47
2019-04-21T11:44:07.827Z,2.83
2019-04-21T11:46:36.291Z,3.30
2019-04-21T11:49:04.274Z,2.97
2019-04-21T11:51:33.174Z,3.17
2019-04-21T11:54:01.546Z,3.10
2019-04-21T11:56:30.473Z,3.40
2019-04-21T11:58:59.674Z,3.10
2019-04-21T12:01:27.725Z,3.53
2019-04-21T12:03:55.738Z,3.33
2019-04-21T12:06:32.395Z,2.90
2019-04-21T12:08:57.547Z,3.20
2019-04-21T12:11:23.299Z,3.23
2019-04-21T12:13:52.099Z,3.67
2019-04-21T12:16:21.111Z,3.20
2019-04-21T12:18:49.269Z,3.30
2019-04-21T12:21:16.997Z,3.30
2019-04-21T12:23:44.899Z,3.40
2019-04-21T12:26:13.800Z,2.90
2019-04-21T12:28:41.996Z,3.57
2019-04-21T12:31:32.172Z,3.20
2019-04-21T12:34:03.801Z,3.70
2019-04-21T12:36:33.805Z,3.63
2019-04-21T12:39:05.083Z,2.90
2019-04-21T12:41:32.867Z,3.30
2019-04-21T12:44:00.885Z,3.20
2019-04-21T12:46:29.768Z,3.70
2019-04-21T12:48:57.995Z,3.97
2019-04-21T12:51:26.208Z,3.60
2019-04-21T12:53:54.130Z,3.40
2019-04-21T12:56:23.286Z,3.20
2019-04-21T12:58:51.407Z,3.30
2019-04-21T13:01:19.153Z,3.30
2019-04-21T13:03:47.972Z,3.30
2019-04-21T13:06:15.965Z,3.50
2019-04-21T13:08:50.936Z,3.60
2019-04-21T13:11:14.927Z,3.23
2019-04-21T13:13:43.889Z,3.50
2019-04-21T13:16:13.685Z,3.00
2019-04-21T13:18:41.817Z,3.23
2019-04-21T13:21:09.947Z,3.10
2019-04-21T13:23:39.044Z,3.10
2019-04-21T13:26:08.255Z,3.77
2019-04-21T13:28:37.645Z,3.43
2019-04-21T13:31:06.473Z,3.67
2019-04-21T13:33:35.232Z,3.13
2019-04-21T13:36:04.954Z,3.10
2019-04-21T13:38:42.184Z,3.67
2019-04-21T13:41:29.688Z,4.03
2019-04-21T13:44:08.927Z,2.87
2019-04-21T13:46:38.690Z,3.30
2019-04-21T13:49:07.477Z,2.90
2019-04-21T13:51:36.055Z,2.90
2019-04-21T13:54:04.298Z,3.33
2019-04-21T13:56:32.410Z,2.87
2019-04-21T13:59:00.250Z,4.00
2019-04-21T14:01:29.678Z,3.60
2019-04-21T14:03:57.822Z,3.67
2019-04-21T14:06:26.637Z,3.50
2019-04-21T14:08:54.865Z,3.73
2019-04-21T14:11:23.124Z,3.53
2019-04-21T14:13:52.262Z,3.30
2019-04-21T14:16:20.324Z,3.77
2019-04-21T14:18:49.561Z,4.63
2019-04-21T14:21:18.838Z,3.73
2019-04-21T14:23:49.300Z,3.23
2019-04-21T14:26:16.352Z,3.07
2019-04-21T14:28:45.018Z,3.17
2019-04-21T14:31:12.857Z,3.60
2019-04-21T14:33:40.638Z,2.97
2019-04-21T14:36:08.664Z,3.57
2019-04-21T14:38:36.700Z,3.87
2019-04-21T14:41:04.440Z,3.53
2019-04-21T14:43:32.232Z,3.50
2019-04-21T14:46:19.501Z,3.90
2019-04-21T14:49:13.502Z,3.73
2019-04-21T14:51:49.889Z,5.37
2019-04-21T14:54:38.509Z,34.63
2019-04-21T14:57:09.211Z,3.80
2019-04-21T14:59:37.304Z,3.33
2019-04-21T15:02:05.636Z,3.30
2019-04-21T15:04:33.644Z,3.87
2019-04-21T15:07:01.465Z,3.13
2019-04-21T15:09:29.731Z,3.40
2019-04-21T15:11:58.205Z,3.83
2019-04-21T15:14:26.653Z,3.50
2019-04-21T15:16:54.636Z,3.43
2019-04-21T15:19:22.634Z,3.70
2019-04-21T15:21:50.366Z,3.53
2019-04-21T15:24:18.427Z,4.00
2019-04-21T15:26:46.447Z,4.60
2019-04-21T15:29:15.103Z,3.70
2019-04-21T15:31:44.726Z,16.27
2019-04-21T15:34:13.137Z,4.47
2019-04-21T15:36:41.887Z,10.17
2019-04-21T15:39:10.047Z,3.00
2019-04-21T15:41:38.574Z,3.00
2019-04-21T15:44:08.286Z,3.47
2019-04-21T15:46:37.518Z,3.17
2019-04-21T15:49:06.884Z,3.30
2019-04-21T15:51:35.776Z,3.70
2019-04-21T15:54:04.894Z,3.20
2019-04-21T15:56:40.776Z,3.20
2019-04-21T15:59:42.290Z,2.93
2019-04-21T16:02:30.713Z,3.47
2019-04-21T16:05:01.065Z,3.40
2019-04-21T16:07:31.667Z,3.07
2019-04-21T16:09:59.869Z,3.50
2019-04-21T16:12:29.677Z,3.20
2019-04-21T16:15:00.771Z,3.07
2019-04-21T16:17:30.151Z,3.20
2019-04-21T16:19:57.954Z,3.90
2019-04-21T16:22:26.482Z,3.33
2019-04-21T16:24:54.688Z,3.40
2019-04-21T16:27:23.405Z,3.00
2019-04-21T16:29:52.161Z,3.17
2019-04-21T16:32:21.629Z,3.50
2019-04-21T16:34:56.385Z,3.73
2019-04-21T16:37:19.475Z,7.67
2019-04-21T16:39:47.450Z,3.60
2019-04-21T16:42:16.218Z,5.50
2019-04-21T16:44:45.009Z,3.73
2019-04-21T16:47:13.815Z,15.63
2019-04-21T16:49:43.482Z,4.87
2019-04-21T16:52:24.007Z,17.97
2019-04-21T16:55:12.940Z,4.47
2019-04-21T16:57:58.419Z,7.73
2019-04-21T17:00:31.751Z,22.40
2019-04-21T17:02:54.726Z,6.67
2019-04-21T17:05:22.690Z,5.33
2019-04-21T17:07:51.396Z,13.80
2019-04-21T17:10:20.406Z,8.40
2019-04-21T17:12:48.212Z,13.97
2019-04-21T17:15:32.481Z,19.47
2019-04-21T17:18:04.158Z,14.47
2019-04-21T17:20:31.199Z,18.00
2019-04-21T17:22:46.226Z,10.20
2019-04-21T17:25:16.122Z,4.50
2019-04-21T17:27:44.934Z,3.43
2019-04-21T17:30:14.674Z,3.70
2019-04-21T17:32:49.763Z,3.53
2019-04-21T17:35:14.272Z,4.53
2019-04-21T17:37:42.758Z,3.03
2019-04-21T17:40:13.559Z,3.80
2019-04-21T17:42:49.207Z,3.00
2019-04-21T17:45:13.194Z,3.20
2019-04-21T17:47:49.572Z,3.13
2019-04-21T17:50:35.734Z,3.50
2019-04-21T17:53:11.198Z,3.40
2019-04-21T17:55:40.909Z,3.00
2019-04-21T17:58:27.273Z,3.47
2019-04-21T18:01:10.134Z,3.27
2019-04-21T18:03:45.698Z,3.27
2019-04-21T18:05:59.388Z,2.70
2019-04-21T18:08:32.525Z,3.30
2019-04-21T18:10:54.418Z,3.30
2019-04-21T18:13:17.303Z,3.27
2019-04-21T18:16:00.131Z,3.90
2019-04-21T18:18:12.504Z,3.63
2019-04-21T18:20:43.903Z,3.50
2019-04-21T18:23:46.886Z,3.70
2019-04-21T18:26:15.801Z,4.10
2019-04-21T18:28:37.083Z,4.13
2019-04-21T18:31:10.335Z,3.53
2019-04-21T18:33:44.101Z,4.10
2019-04-21T18:36:29.237Z,4.20
2019-04-21T18:39:19.762Z,5.05
2019-04-21T18:41:42.716Z,4.17
2019-04-21T18:44:44.418Z,5.80
2019-04-21T18:47:19.914Z,6.08
2019-04-21T18:49:39.100Z,6.20
2019-04-21T18:52:20.673Z,5.85
2019-04-21T18:55:00.152Z,5.40
2019-04-21T18:57:22.585Z,5.80
2019-04-21T18:59:45.727Z,5.55
2019-04-21T19:02:17.520Z,5.05
2019-04-21T19:04:43.115Z,8.38
2019-04-21T19:07:28.934Z,10.90
2019-04-21T19:12:36.657Z,6.15
2019-04-21T19:14:56.679Z,6.75
2019-04-21T19:17:58.138Z,5.45
2019-04-21T19:20:07.415Z,4.30
2019-04-21T19:22:31.339Z,4.53
2019-04-21T19:25:02.369Z,4.20
2019-04-21T19:27:26.450Z,3.95
2019-04-21T19:30:05.465Z,3.55
2019-04-21T19:32:31.803Z,4.03
2019-04-21T19:34:41.449Z,3.80
2019-04-21T19:37:15.476Z,4.10
2019-04-21T19:39:56.208Z,3.92
2019-04-21T19:42:19.684Z,3.50
2019-04-21T19:44:56.702Z,3.25
2019-04-21T19:47:28.170Z,3.20
2019-04-21T19:50:00.322Z,3.85
2019-04-21T19:52:22.619Z,4.20
2019-04-21T19:54:42.696Z,3.62
2019-04-21T19:57:07.224Z,4.30
2019-04-21T19:59:42.298Z,3.40
2019-04-21T20:02:04.891Z,3.35
2019-04-21T20:04:40.744Z,3.80
2019-04-21T20:07:21.096Z,4.28
2019-04-21T20:09:51.777Z,3.72
2019-04-21T20:12:18.485Z,3.50
2019-04-21T20:14:52.186Z,3.15
2019-04-21T20:17:13.778Z,4.00
2019-04-21T20:19:32.124Z,4.40
2019-04-21T20:22:00.894Z,3.87
2019-04-21T20:24:32.459Z,4.12
2019-04-21T20:27:05.296Z,3.77
2019-04-21T20:29:46.607Z,4.00
2019-04-21T20:32:24.685Z,3.80
2019-04-21T20:34:46.067Z,4.35
2019-04-21T20:37:19.127Z,4.25
2019-04-21T20:39:35.050Z,4.03
2019-04-21T20:42:12.760Z,4.40
2019-04-21T20:44:42.559Z,3.50
2019-04-21T20:47:08.065Z,4.53
2019-04-21T20:49:37.600Z,4.53
2019-04-21T20:52:24.383Z,4.00
2019-04-21T20:54:40.805Z,4.42
2019-04-21T20:57:11.465Z,4.58
2019-04-21T20:59:37.555Z,4.30
2019-04-21T21:02:10.209Z,4.00
2019-04-21T21:04:34.955Z,4.10
2019-04-21T21:07:20.883Z,4.20
2019-04-21T21:09:41.327Z,4.28
2019-04-21T21:12:22.278Z,4.60
2019-04-21T21:14:36.428Z,4.50
2019-04-21T21:17:18.319Z,4.30
2019-04-21T21:19:40.712Z,4.78
2019-04-21T21:21:58.853Z,4.22
2019-04-21T21:24:41.978Z,4.20
2019-04-21T21:27:09.189Z,3.75
2019-04-21T21:29:40.152Z,4.40
2019-04-21T21:32:16.900Z,4.20
2019-04-21T21:34:44.447Z,4.30
2019-04-21T21:37:14.237Z,4.58
2019-04-21T21:39:51.065Z,3.70
2019-04-21T21:41:57.625Z,4.35
2019-04-21T21:44:23.655Z,3.80
2019-04-21T21:47:00.513Z,3.80
2019-04-21T21:49:35.556Z,4.30
2019-04-21T21:52:01.707Z,3.47
2019-04-21T21:54:19.938Z,3.98
2019-04-21T21:56:47.915Z,4.05
2019-04-21T21:59:22.174Z,4.35
2019-04-21T22:01:50.710Z,4.40
2019-04-21T22:04:24.177Z,3.90
2019-04-21T22:06:53.485Z,3.87
2019-04-21T22:09:16.504Z,4.40
2019-04-21T22:11:48.622Z,3.92
2019-04-21T22:14:23.067Z,3.77
2019-04-21T22:17:05.968Z,4.37
2019-04-21T22:19:34.007Z,3.92
2019-04-21T22:21:57.796Z,4.40
2019-04-21T22:24:26.884Z,4.00
2019-04-21T22:26:43.224Z,4.55
2019-04-21T22:29:11.788Z,4.30
2019-04-21T22:31:41.577Z,4.12
2019-04-21T22:34:14.072Z,4.30
2019-04-21T22:36:48.724Z,4.03
2019-04-21T22:39:28.270Z,4.03
2019-04-21T22:41:43.748Z,4.37
2019-04-21T22:44:16.366Z,4.10
2019-04-21T22:46:54.782Z,4.30
2019-04-21T22:49:16.187Z,4.87
2019-04-21T22:51:49.676Z,4.60
2019-04-21T22:54:22.198Z,4.42
2019-04-21T22:56:52.987Z,3.95
2019-04-21T22:59:19.647Z,4.60
2019-04-21T23:01:47.375Z,4.30
2019-04-21T23:04:14.010Z,4.00
2019-04-21T23:06:42.695Z,4.25
2019-04-21T23:09:11.128Z,4.50
2019-04-21T23:11:42.790Z,3.95
2019-04-21T23:14:11.640Z,4.50
2019-04-21T23:16:41.644Z,4.80
2019-04-21T23:19:23.695Z,4.87
2019-04-21T23:21:57.804Z,4.60
2019-04-21T23:24:31.644Z,4.70
2019-04-21T23:26:46.232Z,4.15
2019-04-21T23:29:25.734Z,3.75
2019-04-21T23:31:55.052Z,4.05
2019-04-21T23:34:06.419Z,4.40
2019-04-21T23:36:36.057Z,5.22
2019-04-21T23:39:14.511Z,4.55
2019-04-21T23:41:42.338Z,4.67
2019-04-21T23:44:08.593Z,4.58
2019-04-21T23:46:35.613Z,4.65
2019-04-21T23:49:20.189Z,4.65
2019-04-21T23:51:43.437Z,3.95
2019-04-21T23:54:03.110Z,4.12
2019-04-21T23:56:37.117Z,4.33
2019-04-21T23:59:05.119Z,4.83
